createdAt,value
2023-02-06T00:00:12.766Z,100860.94
2023-02-06T00:02:16.403Z,100861.50
2023-02-06T00:04:21.674Z,100864.56
2023-02-06T00:06:39.001Z,100860.83
2023-02-06T00:08:44.302Z,100863.19
2023-02-06T00:10:47.328Z,100865.70
2023-02-06T00:12:50.924Z,100864.56
2023-02-06T00:14:54.207Z,100869.80
2023-02-06T00:16:57.309Z,100871.21
2023-02-06T00:19:01.704Z,100870.39
2023-02-06T00:21:05.652Z,100868.50
2023-02-06T00:23:08.941Z,100869.27
2023-02-06T00:25:13.417Z,100863.67
2023-02-06T00:27:16.636Z,100859.69
2023-02-06T00:29:21.010Z,100859.05
2023-02-06T00:31:23.973Z,100853.89
2023-02-06T00:33:27.923Z,100850.73
2023-02-06T00:35:33.420Z,100844.09
2023-02-06T00:37:38.971Z,100837.75
2023-02-06T00:39:41.619Z,100838.23
2023-02-06T00:41:47.252Z,100838.61
2023-02-06T00:43:50.730Z,100840.24
2023-02-06T00:45:59.875Z,100848.69
2023-02-06T00:48:02.697Z,100861.29
2023-02-06T00:50:10.399Z,100868.04
2023-02-06T00:52:15.618Z,100865.66
2023-02-06T00:54:20.848Z,100862.70
2023-02-06T00:56:27.763Z,100858.66
2023-02-06T00:58:32.140Z,100856.09
2023-02-06T01:00:35.154Z,100855.95
2023-02-06T01:02:38.989Z,100862.31
2023-02-06T01:04:41.918Z,100864.28
2023-02-06T01:06:44.952Z,100867.96
2023-02-06T01:08:48.254Z,100862.48
2023-02-06T01:10:54.207Z,100864.38
2023-02-06T01:12:57.898Z,100867.23
2023-02-06T01:15:03.306Z,100872.25
2023-02-06T01:17:09.578Z,100878.62
2023-02-06T01:19:12.830Z,100877.38
2023-02-06T01:21:20.161Z,100875.21
2023-02-06T01:23:26.305Z,100870.63
2023-02-06T01:25:29.184Z,100872.85
2023-02-06T01:27:34.664Z,100868.78
2023-02-06T01:29:38.115Z,100869.44
2023-02-06T01:31:42.197Z,100871.67
2023-02-06T01:33:47.697Z,100872.83
2023-02-06T01:35:57.231Z,100876.30
2023-02-06T01:38:00.444Z,100875.30
2023-02-06T01:40:08.336Z,100881.66
2023-02-06T01:42:13.257Z,100878.76
2023-02-06T01:44:20.292Z,100877.83
2023-02-06T01:46:25.715Z,100880.93
2023-02-06T01:48:49.064Z,100883.52
2023-02-06T01:50:57.138Z,100885.13
2023-02-06T01:53:00.921Z,100883.36
2023-02-06T01:55:06.717Z,100878.84
2023-02-06T01:57:12.957Z,100884.14
2023-02-06T01:59:16.978Z,100884.89
2023-02-06T02:01:26.005Z,100882.41
2023-02-06T02:03:34.435Z,100883.89
2023-02-06T02:05:39.939Z,100883.16
2023-02-06T02:07:50.490Z,100878.39
2023-02-06T02:09:53.454Z,100868.04
2023-02-06T02:11:59.527Z,100857.71
2023-02-06T02:14:05.429Z,100854.18
2023-02-06T02:16:27.408Z,100855.11
2023-02-06T02:18:34.278Z,100853.09
2023-02-06T02:20:54.962Z,100845.81
2023-02-06T02:23:27.507Z,100838.15
2023-02-06T02:26:04.438Z,100843.94
2023-02-06T02:28:49.762Z,100850.77
2023-02-06T02:30:55.969Z,100850.91
2023-02-06T02:33:06.825Z,100849.50
2023-02-06T02:35:27.607Z,100847.40
2023-02-06T02:38:23.442Z,100845.34
2023-02-06T02:40:35.319Z,100850.02
2023-02-06T02:43:04.913Z,100847.63
2023-02-06T02:45:30.261Z,100847.79
2023-02-06T02:47:43.772Z,100845.32
2023-02-06T02:49:47.233Z,100843.14
2023-02-06T02:51:51.595Z,100842.20
2023-02-06T02:53:58.837Z,100845.86
2023-02-06T02:56:15.865Z,100846.52
2023-02-06T02:58:24.546Z,100850.07
2023-02-06T03:00:30.030Z,100848.80
2023-02-06T03:02:38.478Z,100844.67
2023-02-06T03:04:51.576Z,100835.89
2023-02-06T03:07:20.588Z,100830.66
2023-02-06T03:09:40.429Z,100836.56
2023-02-06T03:11:55.453Z,100847.33
2023-02-06T03:14:07.704Z,100841.79
2023-02-06T03:16:29.112Z,100839.58
2023-02-06T03:18:41.277Z,100834.61
2023-02-06T03:20:47.181Z,100846.98
2023-02-06T03:22:55.902Z,100849.79
2023-02-06T03:25:11.995Z,100846.73
2023-02-06T03:27:17.450Z,100845.84
2023-02-06T03:29:21.753Z,100845.91
2023-02-06T03:31:36.207Z,100841.48
2023-02-06T03:33:52.544Z,100839.45
2023-02-06T03:35:56.920Z,100839.66
2023-02-06T03:38:03.142Z,100844.95
2023-02-06T03:40:10.446Z,100845.18
2023-02-06T03:42:13.907Z,100848.26
2023-02-06T03:44:23.293Z,100848.46
2023-02-06T03:46:30.090Z,100850.73
2023-02-06T03:48:37.904Z,100855.89
2023-02-06T03:50:44.083Z,100858.74
2023-02-06T03:52:50.980Z,100857.40
2023-02-06T03:55:04.310Z,100861.18
2023-02-06T03:57:11.224Z,100868.92
2023-02-06T03:59:15.377Z,100867.83
2023-02-06T04:01:19.434Z,100867.13
2023-02-06T04:03:24.572Z,100868.04
2023-02-06T04:05:28.121Z,100870.02
2023-02-06T04:07:33.654Z,100874.06
2023-02-06T04:09:36.834Z,100875.40
2023-02-06T04:11:42.007Z,100877.39
2023-02-06T04:13:47.798Z,100869.25
2023-02-06T04:15:50.713Z,100870.09
2023-02-06T04:18:00.424Z,100873.05
2023-02-06T04:20:05.483Z,100871.40
2023-02-06T04:22:11.490Z,100869.67
2023-02-06T04:24:14.855Z,100868.56
2023-02-06T04:26:17.477Z,100859.30
2023-02-06T04:28:20.406Z,100858.14
2023-02-06T04:30:23.656Z,100857.20
2023-02-06T04:32:27.930Z,100850.11
2023-02-06T04:34:36.531Z,100846.52
2023-02-06T04:36:40.241Z,100841.55
2023-02-06T04:38:43.786Z,100840.02
2023-02-06T04:40:46.933Z,100840.44
2023-02-06T04:42:49.619Z,100842.54
2023-02-06T04:44:53.947Z,100841.96
2023-02-06T04:46:58.268Z,100843.66
2023-02-06T04:49:04.146Z,100842.38
2023-02-06T04:51:08.417Z,100837.92
2023-02-06T04:53:11.116Z,100838.91
2023-02-06T04:55:14.135Z,100844.60
2023-02-06T04:57:17.406Z,100838.30
2023-02-06T04:59:20.918Z,100829.52
2023-02-06T05:01:25.174Z,100821.08
2023-02-06T05:03:30.690Z,100818.73
2023-02-06T05:05:33.504Z,100829.15
2023-02-06T05:07:36.664Z,100840.83
2023-02-06T05:09:39.356Z,100842.40
2023-02-06T05:11:43.303Z,100839.61
2023-02-06T05:13:47.794Z,100829.71
2023-02-06T05:15:52.158Z,100832.98
2023-02-06T05:17:55.233Z,100840.45
2023-02-06T05:20:00.131Z,100840.98
2023-02-06T05:22:03.906Z,100842.84
2023-02-06T05:24:07.846Z,100847.89
2023-02-06T05:26:10.627Z,100851.51
2023-02-06T05:28:13.593Z,100855.48
2023-02-06T05:30:17.401Z,100862.54
2023-02-06T05:32:23.470Z,100867.52
2023-02-06T05:34:28.131Z,100868.06
2023-02-06T05:36:30.910Z,100868.39
2023-02-06T05:38:35.967Z,100867.88
2023-02-06T05:40:40.752Z,100864.38
2023-02-06T05:42:50.477Z,100865.02
2023-02-06T05:44:53.893Z,100868.66
2023-02-06T05:46:57.461Z,100873.19
2023-02-06T05:49:01.114Z,100875.52
2023-02-06T05:51:04.196Z,100873.58
2023-02-06T05:53:06.877Z,100873.11
2023-02-06T05:55:10.077Z,100873.13
2023-02-06T05:57:13.570Z,100865.19
2023-02-06T05:59:17.132Z,100860.81
2023-02-06T06:01:21.172Z,100854.39
2023-02-06T06:03:24.554Z,100839.08
2023-02-06T06:05:27.582Z,100837.11
2023-02-06T06:07:30.831Z,100826.80
2023-02-06T06:09:34.197Z,100820.38
2023-02-06T06:11:37.281Z,100818.82
2023-02-06T06:13:40.852Z,100818.02
2023-02-06T06:15:46.518Z,100819.33
2023-02-06T06:17:50.627Z,100820.99
2023-02-06T06:19:53.732Z,100826.41
2023-02-06T06:21:58.399Z,100830.71
2023-02-06T06:24:02.317Z,100837.66
2023-02-06T06:26:05.877Z,100837.93
2023-02-06T06:28:10.311Z,100838.96
2023-02-06T06:30:13.400Z,100842.53
2023-02-06T06:32:17.242Z,100839.71
2023-02-06T06:34:20.433Z,100841.85
2023-02-06T06:36:23.168Z,100843.88
2023-02-06T06:38:27.101Z,100838.38
2023-02-06T06:40:30.705Z,100833.59
2023-02-06T06:42:33.449Z,100835.52
2023-02-06T06:44:36.466Z,100835.14
2023-02-06T06:46:39.114Z,100833.73
2023-02-06T06:48:43.010Z,100835.92
2023-02-06T06:50:45.640Z,100838.21
2023-02-06T06:52:53.790Z,100837.73
2023-02-06T06:54:57.755Z,100837.69
2023-02-06T06:57:02.009Z,100839.05
2023-02-06T06:59:05.179Z,100836.30
2023-02-06T07:01:11.774Z,100838.96
2023-02-06T07:03:17.994Z,100836.63
2023-02-06T07:05:21.297Z,100836.66
2023-02-06T07:07:24.413Z,100837.73
2023-02-06T07:09:28.813Z,100842.10
2023-02-06T07:11:34.885Z,100841.52
2023-02-06T07:13:39.107Z,100844.59
2023-02-06T07:15:43.091Z,100843.88
2023-02-06T07:17:53.150Z,100841.48
2023-02-06T07:19:59.412Z,100836.80
2023-02-06T07:22:03.699Z,100834.85
2023-02-06T07:24:07.991Z,100833.86
2023-02-06T07:26:11.319Z,100835.73
2023-02-06T07:28:15.425Z,100833.95
2023-02-06T07:30:19.249Z,100830.70
2023-02-06T07:32:22.671Z,100837.08
2023-02-06T07:34:25.769Z,100836.89
2023-02-06T07:36:29.656Z,100832.71
2023-02-06T07:38:32.950Z,100832.02
2023-02-06T07:40:44.764Z,100833.34
2023-02-06T07:42:48.475Z,100832.98
2023-02-06T07:44:57.308Z,100839.76
2023-02-06T07:47:00.751Z,100841.95
2023-02-06T07:49:03.879Z,100847.95
2023-02-06T07:51:08.754Z,100847.42
2023-02-06T07:53:13.738Z,100842.56
2023-02-06T07:55:20.291Z,100850.55
2023-02-06T07:57:25.519Z,100858.69
2023-02-06T07:59:28.757Z,100857.64
2023-02-06T08:01:32.062Z,100859.48
2023-02-06T08:03:35.438Z,100853.43
2023-02-06T08:05:39.570Z,100853.64
2023-02-06T08:07:42.295Z,100857.33
2023-02-06T08:09:46.834Z,100852.34
2023-02-06T08:11:51.339Z,100846.30
2023-02-06T08:13:53.980Z,100841.13
2023-02-06T08:16:04.391Z,100839.45
2023-02-06T08:18:10.959Z,100835.55
2023-02-06T08:20:13.924Z,100832.65
2023-02-06T08:22:18.329Z,100821.99
2023-02-06T08:24:21.105Z,100813.90
2023-02-06T08:26:24.629Z,100818.61
2023-02-06T08:28:30.875Z,100810.52
2023-02-06T08:30:37.769Z,100805.50
2023-02-06T08:32:40.614Z,100802.85
2023-02-06T08:34:45.046Z,100800.09
2023-02-06T08:36:48.536Z,100802.80
2023-02-06T08:38:53.762Z,100806.05
2023-02-06T08:40:57.114Z,100808.33
2023-02-06T08:43:00.250Z,100809.45
2023-02-06T08:45:03.455Z,100805.55
2023-02-06T08:47:10.407Z,100803.15
2023-02-06T08:49:21.613Z,100800.74
2023-02-06T08:51:31.967Z,100795.39
2023-02-06T08:53:36.349Z,100792.01
2023-02-06T08:55:39.794Z,100786.83
2023-02-06T08:57:42.549Z,100784.80
2023-02-06T08:59:45.717Z,100780.80
2023-02-06T09:01:49.375Z,100779.83
2023-02-06T09:03:56.615Z,100775.52
2023-02-06T09:06:09.885Z,100776.42
2023-02-06T09:08:16.883Z,100777.45
2023-02-06T09:10:27.389Z,100778.45
2023-02-06T09:12:30.648Z,100776.51
2023-02-06T09:14:35.398Z,100776.20
2023-02-06T09:16:38.369Z,100768.02
2023-02-06T09:18:45.809Z,100766.38
2023-02-06T09:20:49.915Z,100768.92
2023-02-06T09:22:53.407Z,100769.35
2023-02-06T09:24:56.090Z,100770.98
2023-02-06T09:27:00.797Z,100772.81
2023-02-06T09:29:07.866Z,100769.86
2023-02-06T09:31:12.355Z,100762.73
2023-02-06T09:33:15.109Z,100753.67
2023-02-06T09:35:17.928Z,100757.30
2023-02-06T09:37:21.495Z,100757.92
2023-02-06T09:39:26.684Z,100752.05
2023-02-06T09:41:35.618Z,100750.07
2023-02-06T09:43:43.430Z,100755.14
2023-02-06T09:45:52.960Z,100754.47
2023-02-06T09:48:23.064Z,100747.13
2023-02-06T09:50:55.769Z,100746.46
2023-02-06T09:53:24.594Z,100743.80
2023-02-06T09:55:43.461Z,100747.84
2023-02-06T09:57:52.491Z,100746.74
2023-02-06T10:00:03.011Z,100752.10
2023-02-06T10:02:37.230Z,100752.20
2023-02-06T10:04:58.927Z,100746.05
2023-02-06T10:07:26.212Z,100749.27
2023-02-06T10:09:41.596Z,100745.51
2023-02-06T10:11:58.981Z,100751.14
2023-02-06T10:14:19.141Z,100750.05
2023-02-06T10:16:46.358Z,100749.90
2023-02-06T10:18:58.152Z,100749.11
2023-02-06T10:21:10.406Z,100743.55
2023-02-06T10:23:26.926Z,100741.33
2023-02-06T10:25:37.773Z,100736.58
2023-02-06T10:27:43.938Z,100735.42
2023-02-06T10:29:48.531Z,100733.52
2023-02-06T10:32:14.178Z,100729.03
2023-02-06T10:34:44.124Z,100725.19
2023-02-06T10:37:22.273Z,100728.04
2023-02-06T10:39:34.300Z,100731.36
2023-02-06T10:42:04.739Z,100736.42
2023-02-06T10:44:18.332Z,100731.48
2023-02-06T10:46:48.021Z,100726.85
2023-02-06T10:49:13.958Z,100724.92
2023-02-06T10:51:44.576Z,100725.80
2023-02-06T10:53:53.571Z,100720.36
2023-02-06T10:56:03.757Z,100715.05
2023-02-06T10:58:21.144Z,100710.05
2023-02-06T11:00:26.212Z,100701.23
2023-02-06T11:02:39.120Z,100703.11
2023-02-06T11:05:18.494Z,100705.63
2023-02-06T11:07:36.745Z,100701.05
2023-02-06T11:09:40.178Z,100700.72
2023-02-06T11:11:51.307Z,100693.02
2023-02-06T11:14:27.316Z,100690.49
2023-02-06T11:16:32.336Z,100678.65
2023-02-06T11:18:46.001Z,100672.87
2023-02-06T11:20:50.640Z,100668.07
2023-02-06T11:22:55.044Z,100660.83
2023-02-06T11:25:05.778Z,100659.03
2023-02-06T11:27:17.746Z,100652.08
2023-02-06T11:29:24.644Z,100650.27
2023-02-06T11:31:44.822Z,100648.55
2023-02-06T11:33:54.400Z,100647.73
2023-02-06T11:36:00.689Z,100643.02
2023-02-06T11:38:27.990Z,100645.45
2023-02-06T11:40:32.399Z,100647.25
2023-02-06T11:42:38.111Z,100647.49
2023-02-06T11:44:43.992Z,100650.36
2023-02-06T11:46:46.974Z,100646.48
2023-02-06T11:49:07.601Z,100652.00
2023-02-06T11:51:15.850Z,100650.42
2023-02-06T11:53:18.821Z,100638.23
2023-02-06T11:55:24.147Z,100626.23
2023-02-06T11:57:27.916Z,100615.39
2023-02-06T11:59:35.481Z,100615.69
2023-02-06T12:01:43.180Z,100615.65
2023-02-06T12:03:50.612Z,100615.16
2023-02-06T12:05:56.729Z,100616.90
2023-02-06T12:08:14.117Z,100615.02
2023-02-06T12:10:19.210Z,100615.66
2023-02-06T12:12:45.226Z,100611.08
2023-02-06T12:14:55.156Z,100617.48
2023-02-06T12:17:03.042Z,100610.61
2023-02-06T12:19:12.321Z,100608.70
2023-02-06T12:21:25.450Z,100605.11
2023-02-06T12:23:35.824Z,100613.20
2023-02-06T12:25:43.438Z,100614.13
2023-02-06T12:27:46.475Z,100615.86
2023-02-06T12:30:26.882Z,100608.22
2023-02-06T12:32:38.902Z,100606.41
2023-02-06T12:34:53.899Z,100602.54
2023-02-06T12:37:11.724Z,100604.14
2023-02-06T12:39:20.001Z,100600.95
2023-02-06T12:41:53.016Z,100600.30
2023-02-06T12:44:04.090Z,100598.46
2023-02-06T12:46:14.863Z,100594.77
2023-02-06T12:48:39.810Z,100598.76
2023-02-06T12:50:49.071Z,100603.02
2023-02-06T12:52:56.065Z,100604.06
2023-02-06T12:55:15.089Z,100602.45
2023-02-06T12:57:27.682Z,100595.44
2023-02-06T13:00:00.855Z,100594.94
2023-02-06T13:02:39.956Z,100586.95
2023-02-06T13:04:46.923Z,100593.92
2023-02-06T13:07:02.772Z,100598.59
2023-02-06T13:09:07.823Z,100593.11
2023-02-06T13:11:39.032Z,100600.02
2023-02-06T13:13:42.633Z,100601.71
2023-02-06T13:15:54.894Z,100609.64
2023-02-06T13:18:00.714Z,100607.89
2023-02-06T13:20:07.491Z,100605.83
2023-02-06T13:22:10.756Z,100603.98
2023-02-06T13:24:16.690Z,100602.66
2023-02-06T13:26:46.315Z,100601.86
2023-02-06T13:28:58.601Z,100608.98
2023-02-06T13:31:03.769Z,100612.87
2023-02-06T13:33:23.444Z,100614.52
2023-02-06T13:35:31.189Z,100609.67
2023-02-06T13:37:41.904Z,100612.23
2023-02-06T13:39:48.327Z,100607.80
2023-02-06T13:41:54.208Z,100611.73
2023-02-06T13:44:18.834Z,100613.30
2023-02-06T13:46:36.624Z,100606.90
2023-02-06T13:48:55.937Z,100608.88
2023-02-06T13:51:20.484Z,100614.56
2023-02-06T13:53:43.779Z,100616.17
2023-02-06T13:56:00.006Z,100615.91
2023-02-06T13:58:43.123Z,100616.98
2023-02-06T14:00:49.883Z,100617.78
2023-02-06T14:03:06.160Z,100621.55
2023-02-06T14:05:19.553Z,100620.86
2023-02-06T14:07:57.616Z,100625.11
2023-02-06T14:10:29.973Z,100627.10
2023-02-06T14:12:44.480Z,100626.73
2023-02-06T14:15:06.893Z,100623.86
2023-02-06T14:17:18.728Z,100621.11
2023-02-06T14:19:39.870Z,100629.23
2023-02-06T14:21:57.900Z,100632.82
2023-02-06T14:24:34.998Z,100626.04
2023-02-06T14:26:50.235Z,100616.50
2023-02-06T14:29:08.359Z,100619.77
2023-02-06T14:31:33.349Z,100629.64
2023-02-06T14:33:49.764Z,100633.63
2023-02-06T14:36:12.659Z,100627.20
2023-02-06T14:38:43.185Z,100635.63
2023-02-06T14:40:51.108Z,100635.45
2023-02-06T14:43:01.346Z,100640.02
2023-02-06T14:45:07.985Z,100640.03
2023-02-06T14:47:22.858Z,100644.56
2023-02-06T14:49:33.865Z,100640.05
2023-02-06T14:51:41.571Z,100638.68
2023-02-06T14:53:53.704Z,100636.77
2023-02-06T14:56:15.968Z,100633.61
2023-02-06T14:58:26.270Z,100630.57
2023-02-06T15:00:30.007Z,100633.63
2023-02-06T15:02:35.105Z,100636.46
2023-02-06T15:04:47.345Z,100634.22
2023-02-06T15:06:52.806Z,100635.16
2023-02-06T15:08:57.445Z,100638.16
2023-02-06T15:11:20.338Z,100642.01
2023-02-06T15:13:26.487Z,100637.78
2023-02-06T15:15:34.816Z,100637.77
2023-02-06T15:17:38.943Z,100637.20
2023-02-06T15:19:41.935Z,100643.02
2023-02-06T15:21:44.637Z,100641.61
2023-02-06T15:24:06.411Z,100640.48
2023-02-06T15:26:27.270Z,100640.90
2023-02-06T15:28:32.612Z,100638.39
2023-02-06T15:30:37.478Z,100640.31
2023-02-06T15:32:40.760Z,100642.30
2023-02-06T15:34:46.407Z,100646.09
2023-02-06T15:36:49.180Z,100644.39
2023-02-06T15:38:57.529Z,100642.27
2023-02-06T15:41:05.596Z,100638.61
2023-02-06T15:43:24.005Z,100644.34
2023-02-06T15:45:35.888Z,100644.84
2023-02-06T15:47:44.176Z,100644.05
2023-02-06T15:49:50.406Z,100648.61
2023-02-06T15:51:58.413Z,100645.14
2023-02-06T15:54:15.561Z,100649.02
2023-02-06T15:56:35.909Z,100641.79
2023-02-06T15:58:40.290Z,100643.05
2023-02-06T16:00:53.589Z,100646.23
2023-02-06T16:03:07.091Z,100649.70
2023-02-06T16:05:24.852Z,100647.64
2023-02-06T16:07:32.442Z,100649.83
2023-02-06T16:09:42.059Z,100646.29
2023-02-06T16:11:48.006Z,100653.17
2023-02-06T16:13:52.266Z,100654.55
2023-02-06T16:16:12.091Z,100654.24
2023-02-06T16:18:26.652Z,100650.34
2023-02-06T16:20:40.423Z,100651.02
2023-02-06T16:22:43.743Z,100654.14
2023-02-06T16:24:50.741Z,100652.92
2023-02-06T16:26:53.774Z,100653.23
2023-02-06T16:29:07.714Z,100654.39
2023-02-06T16:31:17.117Z,100654.77
2023-02-06T16:33:31.863Z,100657.42
2023-02-06T16:35:35.123Z,100652.19
2023-02-06T16:37:38.165Z,100657.43
2023-02-06T16:39:44.220Z,100660.64
2023-02-06T16:41:53.579Z,100661.44
2023-02-06T16:43:57.317Z,100657.45
2023-02-06T16:46:02.683Z,100663.94
2023-02-06T16:48:14.620Z,100667.38
2023-02-06T16:50:22.198Z,100670.36
2023-02-06T16:52:29.170Z,100675.52
2023-02-06T16:54:33.764Z,100676.89
2023-02-06T16:56:40.170Z,100681.18
2023-02-06T16:58:44.485Z,100681.52
2023-02-06T17:00:48.626Z,100681.27
2023-02-06T17:02:55.771Z,100680.98
2023-02-06T17:05:03.022Z,100685.65
2023-02-06T17:07:13.537Z,100682.25
2023-02-06T17:09:18.530Z,100679.77
2023-02-06T17:11:21.482Z,100679.61
2023-02-06T17:13:24.916Z,100679.84
2023-02-06T17:15:29.083Z,100677.27
2023-02-06T17:17:33.282Z,100671.45
2023-02-06T17:19:37.943Z,100667.23
2023-02-06T17:21:45.359Z,100669.00
2023-02-06T17:23:54.824Z,100667.88
2023-02-06T17:25:57.552Z,100667.92
2023-02-06T17:28:01.586Z,100673.02
2023-02-06T17:30:05.277Z,100681.90
2023-02-06T17:32:09.582Z,100680.88
2023-02-06T17:34:12.530Z,100686.03
2023-02-06T17:36:29.290Z,100685.22
2023-02-06T17:38:34.368Z,100692.25
2023-02-06T17:40:41.071Z,100696.11
2023-02-06T17:42:44.143Z,100697.50
2023-02-06T17:44:49.781Z,100692.53
2023-02-06T17:46:53.971Z,100686.77
2023-02-06T17:49:00.484Z,100685.41
2023-02-06T17:51:07.689Z,100687.27
2023-02-06T17:53:13.742Z,100686.59
2023-02-06T17:55:17.900Z,100692.58
2023-02-06T17:57:22.057Z,100693.29
2023-02-06T17:59:34.340Z,100688.14
2023-02-06T18:01:37.120Z,100692.14
2023-02-06T18:03:41.172Z,100688.38
2023-02-06T18:05:47.623Z,100688.23
2023-02-06T18:08:02.953Z,100694.86
2023-02-06T18:10:10.024Z,100702.42
2023-02-06T18:12:12.764Z,100705.56
2023-02-06T18:14:17.847Z,100711.98
2023-02-06T18:16:24.457Z,100706.92
2023-02-06T18:18:30.603Z,100704.20
2023-02-06T18:20:35.626Z,100699.38
2023-02-06T18:22:41.554Z,100703.65
2023-02-06T18:24:47.721Z,100704.70
2023-02-06T18:26:50.626Z,100712.27
2023-02-06T18:28:55.406Z,100711.71
2023-02-06T18:31:02.195Z,100715.35
2023-02-06T18:33:05.158Z,100718.61
2023-02-06T18:35:10.330Z,100722.61
2023-02-06T18:37:14.585Z,100724.59
2023-02-06T18:39:18.443Z,100724.51
2023-02-06T18:41:42.061Z,100726.80
2023-02-06T18:43:44.777Z,100723.43
2023-02-06T18:45:47.591Z,100725.95
2023-02-06T18:47:52.235Z,100728.14
2023-02-06T18:49:58.313Z,100735.58
2023-02-06T18:52:01.394Z,100722.77
2023-02-06T18:54:08.038Z,100715.39
2023-02-06T18:56:16.787Z,100711.63
2023-02-06T18:58:30.833Z,100718.75
2023-02-06T19:00:36.797Z,100725.09
2023-02-06T19:02:42.022Z,100722.66
2023-02-06T19:04:45.440Z,100716.35
2023-02-06T19:06:50.144Z,100710.63
2023-02-06T19:08:56.207Z,100708.81
2023-02-06T19:11:00.563Z,100710.45
2023-02-06T19:13:08.247Z,100720.35
2023-02-06T19:15:12.302Z,100727.02
2023-02-06T19:17:16.622Z,100734.93
2023-02-06T19:19:21.475Z,100741.37
2023-02-06T19:21:28.655Z,100738.55
2023-02-06T19:23:34.775Z,100737.01
2023-02-06T19:25:40.940Z,100734.36
2023-02-06T19:27:44.150Z,100735.73
2023-02-06T19:29:48.267Z,100736.70
2023-02-06T19:31:52.137Z,100735.70
2023-02-06T19:34:02.941Z,100729.76
2023-02-06T19:36:11.981Z,100727.83
2023-02-06T19:38:23.870Z,100730.20
2023-02-06T19:40:28.621Z,100731.30
2023-02-06T19:42:31.388Z,100726.71
2023-02-06T19:44:37.182Z,100727.69
2023-02-06T19:46:43.351Z,100729.45
2023-02-06T19:48:52.165Z,100735.79
2023-02-06T19:51:02.574Z,100742.58
2023-02-06T19:53:15.524Z,100743.27
2023-02-06T19:55:23.593Z,100749.64
2023-02-06T19:57:30.769Z,100748.64
2023-02-06T19:59:34.067Z,100746.52
2023-02-06T20:01:39.583Z,100744.77
2023-02-06T20:03:45.934Z,100745.20
2023-02-06T20:05:49.621Z,100749.05
2023-02-06T20:07:55.181Z,100745.70
2023-02-06T20:09:58.424Z,100750.42
2023-02-06T20:12:01.680Z,100760.70
2023-02-06T20:14:09.727Z,100763.02
2023-02-06T20:16:26.941Z,100758.40
2023-02-06T20:18:32.167Z,100760.52
2023-02-06T20:20:39.036Z,100757.30
2023-02-06T20:22:43.768Z,100759.96
2023-02-06T20:24:47.770Z,100753.77
2023-02-06T20:26:56.057Z,100757.29
2023-02-06T20:29:01.755Z,100753.88
2023-02-06T20:31:12.131Z,100749.34
2023-02-06T20:33:15.910Z,100753.54
2023-02-06T20:35:22.937Z,100760.63
2023-02-06T20:37:29.744Z,100760.66
2023-02-06T20:39:35.343Z,100763.13
2023-02-06T20:41:39.451Z,100763.90
2023-02-06T20:43:43.865Z,100761.58
2023-02-06T20:45:46.968Z,100765.45
2023-02-06T20:47:50.554Z,100769.06
2023-02-06T20:49:55.888Z,100767.43
2023-02-06T20:51:59.729Z,100776.23
2023-02-06T20:54:08.206Z,100787.05
2023-02-06T20:56:14.602Z,100796.80
2023-02-06T20:58:20.233Z,100799.64
2023-02-06T21:00:23.524Z,100802.38
2023-02-06T21:02:30.376Z,100802.86
2023-02-06T21:04:37.861Z,100796.91
2023-02-06T21:06:40.932Z,100797.73
2023-02-06T21:08:46.431Z,100795.54
2023-02-06T21:10:50.558Z,100788.85
2023-02-06T21:12:54.747Z,100792.35
2023-02-06T21:15:03.170Z,100794.38
2023-02-06T21:17:13.013Z,100793.99
2023-02-06T21:19:20.473Z,100794.52
2023-02-06T21:21:28.047Z,100800.29
2023-02-06T21:23:33.163Z,100801.30
2023-02-06T21:25:37.299Z,100808.45
2023-02-06T21:27:43.667Z,100808.98
2023-02-06T21:29:47.788Z,100803.14
2023-02-06T21:31:55.750Z,100804.83
2023-02-06T21:34:16.505Z,100815.63
2023-02-06T21:36:21.250Z,100816.02
2023-02-06T21:38:25.411Z,100819.25
2023-02-06T21:40:30.149Z,100824.46
2023-02-06T21:42:34.718Z,100823.55
2023-02-06T21:44:38.328Z,100825.06
2023-02-06T21:46:43.317Z,100834.84
2023-02-06T21:48:51.642Z,100829.45
2023-02-06T21:50:54.946Z,100828.73
2023-02-06T21:52:59.253Z,100829.70
2023-02-06T21:55:03.719Z,100837.52
2023-02-06T21:57:09.536Z,100841.52
2023-02-06T21:59:12.739Z,100847.15
2023-02-06T22:01:17.743Z,100847.70
2023-02-06T22:03:23.079Z,100842.40
2023-02-06T22:05:27.798Z,100847.55
2023-02-06T22:07:31.397Z,100858.73
2023-02-06T22:09:34.098Z,100862.30
2023-02-06T22:11:39.466Z,100856.34
2023-02-06T22:13:43.255Z,100863.84
2023-02-06T22:15:59.513Z,100868.64
2023-02-06T22:18:02.295Z,100868.27
2023-02-06T22:20:05.401Z,100867.37
2023-02-06T22:22:08.455Z,100867.29
2023-02-06T22:24:13.573Z,100867.42
2023-02-06T22:26:21.346Z,100864.98
2023-02-06T22:28:24.025Z,100866.06
2023-02-06T22:30:30.283Z,100865.44
2023-02-06T22:32:37.331Z,100863.08
2023-02-06T22:34:40.979Z,100862.08
2023-02-06T22:36:51.609Z,100869.31
2023-02-06T22:38:58.759Z,100874.16
2023-02-06T22:41:29.614Z,100867.89
2023-02-06T22:43:37.067Z,100876.81
2023-02-06T22:45:40.111Z,100888.23
2023-02-06T22:47:42.902Z,100883.53
2023-02-06T22:49:46.784Z,100884.35
2023-02-06T22:51:49.702Z,100894.48
2023-02-06T22:53:53.010Z,100895.17
2023-02-06T22:56:26.725Z,100885.85
2023-02-06T22:58:31.777Z,100876.23
2023-02-06T23:00:35.022Z,100881.20
2023-02-06T23:02:39.225Z,100889.35
2023-02-06T23:04:42.755Z,100891.60
2023-02-06T23:06:48.163Z,100893.96
2023-02-06T23:08:50.940Z,100898.31
2023-02-06T23:10:53.879Z,100906.18
2023-02-06T23:12:57.325Z,100909.62
2023-02-06T23:15:00.236Z,100918.04
2023-02-06T23:17:03.999Z,100918.98
2023-02-06T23:19:07.663Z,100911.95
2023-02-06T23:21:15.784Z,100906.37
2023-02-06T23:23:18.719Z,100900.00
2023-02-06T23:25:21.731Z,100909.98
2023-02-06T23:27:27.128Z,100911.27
2023-02-06T23:29:30.244Z,100905.72
2023-02-06T23:31:33.671Z,100899.17
2023-02-06T23:33:44.709Z,100900.27
2023-02-06T23:35:47.782Z,100902.86
2023-02-06T23:37:51.139Z,100905.73
2023-02-06T23:39:53.955Z,100905.00
2023-02-06T23:41:56.746Z,100902.89
2023-02-06T23:44:02.486Z,100910.27
2023-02-06T23:46:09.843Z,100921.81
2023-02-06T23:48:17.262Z,100924.12
2023-02-06T23:50:22.945Z,100924.60
2023-02-06T23:52:25.629Z,100926.52
2023-02-06T23:54:29.147Z,100932.84
2023-02-06T23:56:33.649Z,100944.17
2023-02-06T23:58:36.356Z,100948.05
